sensor_id;sensor_type;location;lat;lon;timestamp;P1;durP1;ratioP1;P2;durP2;ratioP2
69625;SDS011;56847;51.984;5.088;2023-03-31T00:00:50;19.73;;;4.10;;
69625;SDS011;56847;51.984;5.088;2023-03-31T00:03:19;17.65;;;4.65;;
69625;SDS011;56847;51.984;5.088;2023-03-31T00:05:54;17.83;;;4.63;;
69625;SDS011;56847;51.984;5.088;2023-03-31T00:08:25;15.27;;;4.65;;
69625;SDS011;56847;51.984;5.088;2023-03-31T00:10:59;16.80;;;3.90;;
69625;SDS011;56847;51.984;5.088;2023-03-31T00:13:28;15.87;;;4.40;;
69625;SDS011;56847;51.984;5.088;2023-03-31T00:16:01;17.33;;;4.60;;
69625;SDS011;56847;51.984;5.088;2023-03-31T00:18:32;12.90;;;3.05;;
69625;SDS011;56847;51.984;5.088;2023-03-31T00:21:34;20.67;;;5.88;;
69625;SDS011;56847;51.984;5.088;2023-03-31T00:23:56;13.48;;;4.35;;
69625;SDS011;56847;51.984;5.088;2023-03-31T00:26:24;12.03;;;3.37;;
69625;SDS011;56847;51.984;5.088;2023-03-31T00:28:51;21.50;;;4.28;;
69625;SDS011;56847;51.984;5.088;2023-03-31T00:31:20;14.32;;;4.22;;
69625;SDS011;56847;51.984;5.088;2023-03-31T00:33:48;12.85;;;4.47;;
69625;SDS011;56847;51.984;5.088;2023-03-31T00:36:15;24.80;;;4.18;;
69625;SDS011;56847;51.984;5.088;2023-03-31T00:38:47;16.27;;;4.17;;
69625;SDS011;56847;51.984;5.088;2023-03-31T00:41:14;12.68;;;3.30;;
69625;SDS011;56847;51.984;5.088;2023-03-31T00:44:01;16.90;;;3.58;;
69625;SDS011;56847;51.984;5.088;2023-03-31T00:49:30;11.25;;;3.10;;
69625;SDS011;56847;51.984;5.088;2023-03-31T00:52:10;14.57;;;3.87;;
69625;SDS011;56847;51.984;5.088;2023-03-31T00:54:39;13.98;;;3.47;;
69625;SDS011;56847;51.984;5.088;2023-03-31T00:57:08;11.27;;;3.63;;
69625;SDS011;56847;51.984;5.088;2023-03-31T00:59:38;11.93;;;3.10;;
69625;SDS011;56847;51.984;5.088;2023-03-31T01:02:08;12.10;;;3.58;;
69625;SDS011;56847;51.984;5.088;2023-03-31T01:04:40;12.27;;;2.83;;
69625;SDS011;56847;51.984;5.088;2023-03-31T01:10:16;15.07;;;3.63;;
69625;SDS011;56847;51.984;5.088;2023-03-31T01:12:48;14.43;;;4.30;;
69625;SDS011;56847;51.984;5.088;2023-03-31T01:15:19;19.10;;;4.18;;
69625;SDS011;56847;51.984;5.088;2023-03-31T01:17:47;15.17;;;4.77;;
69625;SDS011;56847;51.984;5.088;2023-03-31T01:20:26;14.90;;;4.50;;
69625;SDS011;56847;51.984;5.088;2023-03-31T01:28:40;12.38;;;4.50;;
69625;SDS011;56847;51.984;5.088;2023-03-31T01:31:20;23.30;;;5.50;;
69625;SDS011;56847;51.984;5.088;2023-03-31T01:39:56;13.13;;;4.68;;
69625;SDS011;56847;51.984;5.088;2023-03-31T01:42:41;13.02;;;4.72;;
69625;SDS011;56847;51.984;5.088;2023-03-31T01:45:39;16.03;;;4.77;;
69625;SDS011;56847;51.984;5.088;2023-03-31T01:48:19;13.18;;;4.90;;
69625;SDS011;56847;51.984;5.088;2023-03-31T01:53:53;15.85;;;5.00;;
69625;SDS011;56847;51.984;5.088;2023-03-31T01:56:28;21.80;;;5.38;;
69625;SDS011;56847;51.984;5.088;2023-03-31T01:59:00;16.90;;;4.80;;
69625;SDS011;56847;51.984;5.088;2023-03-31T02:01:35;16.02;;;5.55;;
69625;SDS011;56847;51.984;5.088;2023-03-31T02:04:27;15.90;;;5.28;;
69625;SDS011;56847;51.984;5.088;2023-03-31T02:06:58;12.18;;;5.00;;
69625;SDS011;56847;51.984;5.088;2023-03-31T02:09:55;17.05;;;4.47;;
69625;SDS011;56847;51.984;5.088;2023-03-31T02:12:26;21.17;;;5.30;;
69625;SDS011;56847;51.984;5.088;2023-03-31T02:14:56;19.00;;;5.25;;
69625;SDS011;56847;51.984;5.088;2023-03-31T02:17:26;21.90;;;5.07;;
69625;SDS011;56847;51.984;5.088;2023-03-31T02:19:56;19.30;;;4.68;;
69625;SDS011;56847;51.984;5.088;2023-03-31T02:22:28;20.85;;;4.65;;
69625;SDS011;56847;51.984;5.088;2023-03-31T02:24:59;20.80;;;4.80;;
69625;SDS011;56847;51.984;5.088;2023-03-31T02:27:32;17.33;;;4.68;;
69625;SDS011;56847;51.984;5.088;2023-03-31T02:30:03;19.50;;;4.28;;
69625;SDS011;56847;51.984;5.088;2023-03-31T02:32:36;16.25;;;4.50;;
69625;SDS011;56847;51.984;5.088;2023-03-31T02:35:06;29.70;;;5.88;;
69625;SDS011;56847;51.984;5.088;2023-03-31T02:37:36;22.87;;;5.43;;
69625;SDS011;56847;51.984;5.088;2023-03-31T02:40:06;20.55;;;5.00;;
69625;SDS011;56847;51.984;5.088;2023-03-31T02:42:38;18.98;;;4.53;;
69625;SDS011;56847;51.984;5.088;2023-03-31T02:50:50;15.03;;;4.17;;
69625;SDS011;56847;51.984;5.088;2023-03-31T03:07:46;21.42;;;4.45;;
69625;SDS011;56847;51.984;5.088;2023-03-31T03:10:49;13.45;;;4.47;;
69625;SDS011;56847;51.984;5.088;2023-03-31T03:16:19;19.60;;;4.63;;
69625;SDS011;56847;51.984;5.088;2023-03-31T03:18:56;25.97;;;4.50;;
69625;SDS011;56847;51.984;5.088;2023-03-31T03:21:25;19.35;;;4.63;;
69625;SDS011;56847;51.984;5.088;2023-03-31T03:23:53;20.73;;;3.78;;
69625;SDS011;56847;51.984;5.088;2023-03-31T03:26:20;19.60;;;4.47;;
69625;SDS011;56847;51.984;5.088;2023-03-31T03:28:49;16.27;;;4.63;;
69625;SDS011;56847;51.984;5.088;2023-03-31T03:31:16;24.77;;;4.70;;
69625;SDS011;56847;51.984;5.088;2023-03-31T03:33:49;14.07;;;4.18;;
69625;SDS011;56847;51.984;5.088;2023-03-31T03:36:16;13.25;;;4.60;;
69625;SDS011;56847;51.984;5.088;2023-03-31T03:38:49;21.13;;;4.97;;
69625;SDS011;56847;51.984;5.088;2023-03-31T03:41:16;15.20;;;4.47;;
69625;SDS011;56847;51.984;5.088;2023-03-31T03:43:45;17.33;;;4.23;;
69625;SDS011;56847;51.984;5.088;2023-03-31T03:46:15;19.38;;;4.63;;
69625;SDS011;56847;51.984;5.088;2023-03-31T03:48:42;17.77;;;4.45;;
69625;SDS011;56847;51.984;5.088;2023-03-31T03:51:09;15.75;;;4.00;;
69625;SDS011;56847;51.984;5.088;2023-03-31T03:53:36;16.65;;;4.28;;
69625;SDS011;56847;51.984;5.088;2023-03-31T03:56:05;20.47;;;4.87;;
69625;SDS011;56847;51.984;5.088;2023-03-31T03:58:33;9.65;;;3.25;;
69625;SDS011;56847;51.984;5.088;2023-03-31T04:01:00;13.98;;;3.53;;
69625;SDS011;56847;51.984;5.088;2023-03-31T04:03:27;11.60;;;3.33;;
69625;SDS011;56847;51.984;5.088;2023-03-31T04:05:57;12.27;;;2.97;;
69625;SDS011;56847;51.984;5.088;2023-03-31T04:08:24;11.47;;;3.50;;
69625;SDS011;56847;51.984;5.088;2023-03-31T04:10:52;15.55;;;3.47;;
69625;SDS011;56847;51.984;5.088;2023-03-31T04:13:19;11.55;;;2.90;;
69625;SDS011;56847;51.984;5.088;2023-03-31T04:15:46;12.25;;;3.25;;
69625;SDS011;56847;51.984;5.088;2023-03-31T04:18:14;12.05;;;3.45;;
69625;SDS011;56847;51.984;5.088;2023-03-31T04:20:51;8.17;;;3.10;;
69625;SDS011;56847;51.984;5.088;2023-03-31T04:23:34;11.35;;;3.33;;
69625;SDS011;56847;51.984;5.088;2023-03-31T04:26:12;14.25;;;3.22;;
69625;SDS011;56847;51.984;5.088;2023-03-31T04:28:40;16.40;;;3.80;;
69625;SDS011;56847;51.984;5.088;2023-03-31T04:31:16;14.07;;;3.80;;
69625;SDS011;56847;51.984;5.088;2023-03-31T04:33:51;12.77;;;3.47;;
69625;SDS011;56847;51.984;5.088;2023-03-31T04:36:33;10.40;;;4.32;;
69625;SDS011;56847;51.984;5.088;2023-03-31T04:39:08;14.45;;;3.70;;
69625;SDS011;56847;51.984;5.088;2023-03-31T04:41:38;10.63;;;3.03;;
69625;SDS011;56847;51.984;5.088;2023-03-31T04:44:07;12.05;;;3.88;;
69625;SDS011;56847;51.984;5.088;2023-03-31T04:46:35;19.70;;;4.00;;
69625;SDS011;56847;51.984;5.088;2023-03-31T04:49:02;11.73;;;3.50;;
69625;SDS011;56847;51.984;5.088;2023-03-31T04:51:31;9.43;;;2.92;;
69625;SDS011;56847;51.984;5.088;2023-03-31T04:53:58;11.93;;;3.60;;
69625;SDS011;56847;51.984;5.088;2023-03-31T04:56:25;11.63;;;4.25;;
69625;SDS011;56847;51.984;5.088;2023-03-31T04:58:52;13.20;;;3.70;;
69625;SDS011;56847;51.984;5.088;2023-03-31T05:01:20;12.48;;;2.97;;
69625;SDS011;56847;51.984;5.088;2023-03-31T05:03:47;14.23;;;3.17;;
69625;SDS011;56847;51.984;5.088;2023-03-31T05:06:14;14.80;;;3.60;;
69625;SDS011;56847;51.984;5.088;2023-03-31T05:08:42;13.13;;;3.83;;
69625;SDS011;56847;51.984;5.088;2023-03-31T05:11:10;8.00;;;2.97;;
69625;SDS011;56847;51.984;5.088;2023-03-31T05:13:37;9.93;;;2.88;;
69625;SDS011;56847;51.984;5.088;2023-03-31T05:16:05;10.75;;;3.42;;
69625;SDS011;56847;51.984;5.088;2023-03-31T05:18:34;9.13;;;3.60;;
69625;SDS011;56847;51.984;5.088;2023-03-31T05:21:36;11.52;;;3.13;;
69625;SDS011;56847;51.984;5.088;2023-03-31T05:23:56;16.70;;;3.30;;
69625;SDS011;56847;51.984;5.088;2023-03-31T05:26:23;13.77;;;3.78;;
69625;SDS011;56847;51.984;5.088;2023-03-31T05:28:51;8.68;;;2.95;;
69625;SDS011;56847;51.984;5.088;2023-03-31T05:31:18;15.90;;;3.60;;
69625;SDS011;56847;51.984;5.088;2023-03-31T05:33:45;15.35;;;3.47;;
69625;SDS011;56847;51.984;5.088;2023-03-31T05:36:13;13.70;;;3.37;;
69625;SDS011;56847;51.984;5.088;2023-03-31T05:38:41;13.27;;;3.20;;
69625;SDS011;56847;51.984;5.088;2023-03-31T05:41:09;10.32;;;3.10;;
69625;SDS011;56847;51.984;5.088;2023-03-31T05:43:37;7.93;;;3.08;;
69625;SDS011;56847;51.984;5.088;2023-03-31T05:46:07;11.70;;;3.63;;
69625;SDS011;56847;51.984;5.088;2023-03-31T05:48:35;10.30;;;3.60;;
69625;SDS011;56847;51.984;5.088;2023-03-31T05:51:03;13.00;;;3.17;;
69625;SDS011;56847;51.984;5.088;2023-03-31T05:53:32;12.90;;;3.10;;
69625;SDS011;56847;51.984;5.088;2023-03-31T05:56:03;10.80;;;2.95;;
69625;SDS011;56847;51.984;5.088;2023-03-31T05:58:33;7.95;;;2.72;;
69625;SDS011;56847;51.984;5.088;2023-03-31T06:01:05;12.53;;;2.80;;
69625;SDS011;56847;51.984;5.088;2023-03-31T06:03:38;8.95;;;3.00;;
69625;SDS011;56847;51.984;5.088;2023-03-31T06:06:07;10.65;;;3.00;;
69625;SDS011;56847;51.984;5.088;2023-03-31T06:08:38;6.72;;;2.80;;
69625;SDS011;56847;51.984;5.088;2023-03-31T06:11:05;7.65;;;2.50;;
69625;SDS011;56847;51.984;5.088;2023-03-31T06:13:34;8.80;;;2.87;;
69625;SDS011;56847;51.984;5.088;2023-03-31T06:16:02;8.40;;;1.83;;
69625;SDS011;56847;51.984;5.088;2023-03-31T06:18:31;6.10;;;1.83;;
69625;SDS011;56847;51.984;5.088;2023-03-31T06:20:59;5.38;;;2.05;;
69625;SDS011;56847;51.984;5.088;2023-03-31T06:23:27;7.63;;;2.15;;
69625;SDS011;56847;51.984;5.088;2023-03-31T06:25:58;7.40;;;2.67;;
69625;SDS011;56847;51.984;5.088;2023-03-31T06:28:27;4.95;;;1.85;;
69625;SDS011;56847;51.984;5.088;2023-03-31T06:31:02;6.68;;;1.90;;
69625;SDS011;56847;51.984;5.088;2023-03-31T06:33:33;8.73;;;3.00;;
69625;SDS011;56847;51.984;5.088;2023-03-31T06:36:01;9.88;;;2.70;;
69625;SDS011;56847;51.984;5.088;2023-03-31T06:38:31;6.53;;;3.23;;
69625;SDS011;56847;51.984;5.088;2023-03-31T06:40:59;7.90;;;2.33;;
69625;SDS011;56847;51.984;5.088;2023-03-31T06:43:29;6.32;;;2.05;;
69625;SDS011;56847;51.984;5.088;2023-03-31T06:45:56;9.18;;;1.85;;
69625;SDS011;56847;51.984;5.088;2023-03-31T06:48:24;7.35;;;2.25;;
69625;SDS011;56847;51.984;5.088;2023-03-31T06:50:54;6.83;;;2.00;;
69625;SDS011;56847;51.984;5.088;2023-03-31T06:53:24;7.05;;;2.28;;
69625;SDS011;56847;51.984;5.088;2023-03-31T06:55:51;3.97;;;2.10;;
69625;SDS011;56847;51.984;5.088;2023-03-31T06:58:19;8.52;;;2.00;;
69625;SDS011;56847;51.984;5.088;2023-03-31T07:00:46;8.32;;;2.15;;
69625;SDS011;56847;51.984;5.088;2023-03-31T07:03:13;4.53;;;1.87;;
69625;SDS011;56847;51.984;5.088;2023-03-31T07:05:51;5.18;;;2.15;;
69625;SDS011;56847;51.984;5.088;2023-03-31T07:08:18;6.63;;;2.20;;
69625;SDS011;56847;51.984;5.088;2023-03-31T07:10:47;11.25;;;2.08;;
69625;SDS011;56847;51.984;5.088;2023-03-31T07:13:16;6.28;;;2.08;;
69625;SDS011;56847;51.984;5.088;2023-03-31T07:15:46;4.03;;;2.33;;
69625;SDS011;56847;51.984;5.088;2023-03-31T07:18:15;7.90;;;1.88;;
69625;SDS011;56847;51.984;5.088;2023-03-31T07:20:43;8.52;;;2.10;;
69625;SDS011;56847;51.984;5.088;2023-03-31T07:23:13;9.27;;;2.22;;
69625;SDS011;56847;51.984;5.088;2023-03-31T07:25:45;6.03;;;3.03;;
69625;SDS011;56847;51.984;5.088;2023-03-31T07:28:15;7.90;;;3.47;;
69625;SDS011;56847;51.984;5.088;2023-03-31T07:30:42;7.07;;;2.88;;
69625;SDS011;56847;51.984;5.088;2023-03-31T07:33:09;6.63;;;3.10;;
69625;SDS011;56847;51.984;5.088;2023-03-31T07:35:39;6.72;;;2.58;;
69625;SDS011;56847;51.984;5.088;2023-03-31T07:38:08;4.50;;;2.50;;
69625;SDS011;56847;51.984;5.088;2023-03-31T07:40:36;7.13;;;3.17;;
69625;SDS011;56847;51.984;5.088;2023-03-31T07:43:06;9.48;;;3.05;;
69625;SDS011;56847;51.984;5.088;2023-03-31T07:45:34;6.65;;;2.85;;
69625;SDS011;56847;51.984;5.088;2023-03-31T07:48:01;7.05;;;2.90;;
69625;SDS011;56847;51.984;5.088;2023-03-31T07:50:31;8.43;;;3.50;;
69625;SDS011;56847;51.984;5.088;2023-03-31T07:53:00;10.67;;;3.63;;
69625;SDS011;56847;51.984;5.088;2023-03-31T07:55:29;5.63;;;2.55;;
69625;SDS011;56847;51.984;5.088;2023-03-31T07:57:56;8.48;;;2.90;;
69625;SDS011;56847;51.984;5.088;2023-03-31T08:00:23;10.18;;;3.80;;
69625;SDS011;56847;51.984;5.088;2023-03-31T08:02:50;11.43;;;3.67;;
69625;SDS011;56847;51.984;5.088;2023-03-31T08:05:18;19.63;;;4.37;;
69625;SDS011;56847;51.984;5.088;2023-03-31T08:07:47;8.65;;;4.25;;
69625;SDS011;56847;51.984;5.088;2023-03-31T08:10:16;8.70;;;3.95;;
69625;SDS011;56847;51.984;5.088;2023-03-31T08:12:49;14.68;;;4.57;;
69625;SDS011;56847;51.984;5.088;2023-03-31T08:15:16;15.50;;;5.93;;
69625;SDS011;56847;51.984;5.088;2023-03-31T08:17:44;17.30;;;5.53;;
69625;SDS011;56847;51.984;5.088;2023-03-31T08:20:11;17.20;;;4.80;;
69625;SDS011;56847;51.984;5.088;2023-03-31T08:22:38;18.33;;;5.72;;
69625;SDS011;56847;51.984;5.088;2023-03-31T08:25:08;14.85;;;4.63;;
69625;SDS011;56847;51.984;5.088;2023-03-31T08:27:37;20.38;;;5.68;;
69625;SDS011;56847;51.984;5.088;2023-03-31T08:30:06;18.20;;;4.70;;
69625;SDS011;56847;51.984;5.088;2023-03-31T08:32:35;13.40;;;4.35;;
69625;SDS011;56847;51.984;5.088;2023-03-31T08:35:02;24.45;;;4.78;;
69625;SDS011;56847;51.984;5.088;2023-03-31T08:37:29;22.58;;;4.15;;
69625;SDS011;56847;51.984;5.088;2023-03-31T08:39:57;25.17;;;4.40;;
69625;SDS011;56847;51.984;5.088;2023-03-31T08:42:31;20.93;;;4.60;;
69625;SDS011;56847;51.984;5.088;2023-03-31T08:48:05;22.83;;;4.65;;
69625;SDS011;56847;51.984;5.088;2023-03-31T08:50:57;22.38;;;4.97;;
69625;SDS011;56847;51.984;5.088;2023-03-31T08:53:40;30.83;;;5.60;;
69625;SDS011;56847;51.984;5.088;2023-03-31T08:56:14;24.70;;;4.40;;
69625;SDS011;56847;51.984;5.088;2023-03-31T08:58:44;27.98;;;5.20;;
69625;SDS011;56847;51.984;5.088;2023-03-31T09:15:17;21.15;;;4.93;;
69625;SDS011;56847;51.984;5.088;2023-03-31T09:18:16;15.65;;;4.18;;
69625;SDS011;56847;51.984;5.088;2023-03-31T09:20:54;20.10;;;4.18;;
69625;SDS011;56847;51.984;5.088;2023-03-31T09:23:48;13.17;;;4.47;;
69625;SDS011;56847;51.984;5.088;2023-03-31T09:26:31;21.60;;;4.85;;
69625;SDS011;56847;51.984;5.088;2023-03-31T09:29:15;19.63;;;5.00;;
69625;SDS011;56847;51.984;5.088;2023-03-31T09:32:22;19.23;;;5.45;;
69625;SDS011;56847;51.984;5.088;2023-03-31T09:34:51;18.88;;;4.43;;
69625;SDS011;56847;51.984;5.088;2023-03-31T09:37:24;16.23;;;5.00;;
69625;SDS011;56847;51.984;5.088;2023-03-31T09:39:57;20.95;;;5.25;;
69625;SDS011;56847;51.984;5.088;2023-03-31T09:42:26;22.70;;;4.88;;
69625;SDS011;56847;51.984;5.088;2023-03-31T09:44:53;28.70;;;5.22;;
69625;SDS011;56847;51.984;5.088;2023-03-31T09:47:32;21.58;;;5.40;;
69625;SDS011;56847;51.984;5.088;2023-03-31T09:50:05;17.70;;;4.07;;
69625;SDS011;56847;51.984;5.088;2023-03-31T09:52:36;21.38;;;4.68;;
69625;SDS011;56847;51.984;5.088;2023-03-31T09:55:32;17.23;;;4.78;;
69625;SDS011;56847;51.984;5.088;2023-03-31T09:58:12;15.23;;;4.35;;
69625;SDS011;56847;51.984;5.088;2023-03-31T10:00:43;13.05;;;3.72;;
69625;SDS011;56847;51.984;5.088;2023-03-31T10:03:25;22.40;;;4.70;;
69625;SDS011;56847;51.984;5.088;2023-03-31T10:05:55;16.00;;;4.72;;
69625;SDS011;56847;51.984;5.088;2023-03-31T10:08:26;20.45;;;4.35;;
69625;SDS011;56847;51.984;5.088;2023-03-31T10:16:22;15.10;;;4.83;;
69625;SDS011;56847;51.984;5.088;2023-03-31T10:18:53;16.05;;;4.10;;
69625;SDS011;56847;51.984;5.088;2023-03-31T10:21:24;19.38;;;4.45;;
69625;SDS011;56847;51.984;5.088;2023-03-31T10:23:55;12.98;;;3.78;;
69625;SDS011;56847;51.984;5.088;2023-03-31T10:26:29;11.43;;;4.00;;
69625;SDS011;56847;51.984;5.088;2023-03-31T10:28:57;14.50;;;3.50;;
69625;SDS011;56847;51.984;5.088;2023-03-31T10:31:24;10.38;;;2.65;;
69625;SDS011;56847;51.984;5.088;2023-03-31T10:33:59;12.73;;;3.60;;
69625;SDS011;56847;51.984;5.088;2023-03-31T10:36:32;15.48;;;3.95;;
69625;SDS011;56847;51.984;5.088;2023-03-31T10:39:04;18.27;;;3.85;;
69625;SDS011;56847;51.984;5.088;2023-03-31T10:41:32;13.13;;;3.60;;
69625;SDS011;56847;51.984;5.088;2023-03-31T10:44:00;14.68;;;3.60;;
69625;SDS011;56847;51.984;5.088;2023-03-31T10:46:46;15.45;;;3.35;;
69625;SDS011;56847;51.984;5.088;2023-03-31T10:51:56;19.70;;;3.97;;
69625;SDS011;56847;51.984;5.088;2023-03-31T10:54:25;14.60;;;3.40;;
69625;SDS011;56847;51.984;5.088;2023-03-31T10:56:59;12.75;;;3.60;;
69625;SDS011;56847;51.984;5.088;2023-03-31T11:11:24;13.52;;;3.72;;
69625;SDS011;56847;51.984;5.088;2023-03-31T11:22:26;15.77;;;3.80;;
69625;SDS011;56847;51.984;5.088;2023-03-31T11:25:15;15.48;;;3.05;;
69625;SDS011;56847;51.984;5.088;2023-03-31T11:36:15;13.13;;;3.23;;
69625;SDS011;56847;51.984;5.088;2023-03-31T11:39:11;14.50;;;3.83;;
69625;SDS011;56847;51.984;5.088;2023-03-31T11:41:56;18.95;;;4.07;;
69625;SDS011;56847;51.984;5.088;2023-03-31T11:44:27;22.45;;;4.40;;
69625;SDS011;56847;51.984;5.088;2023-03-31T11:47:05;22.33;;;4.70;;
69625;SDS011;56847;51.984;5.088;2023-03-31T11:49:44;18.70;;;3.83;;
69625;SDS011;56847;51.984;5.088;2023-03-31T11:52:28;14.90;;;4.18;;
69625;SDS011;56847;51.984;5.088;2023-03-31T11:55:16;18.27;;;4.75;;
69625;SDS011;56847;51.984;5.088;2023-03-31T11:57:49;18.15;;;4.47;;
69625;SDS011;56847;51.984;5.088;2023-03-31T12:03:51;15.90;;;4.10;;
69625;SDS011;56847;51.984;5.088;2023-03-31T12:06:20;26.38;;;8.13;;
69625;SDS011;56847;51.984;5.088;2023-03-31T12:09:12;22.15;;;6.70;;
69625;SDS011;56847;51.984;5.088;2023-03-31T12:11:49;18.27;;;5.20;;
69625;SDS011;56847;51.984;5.088;2023-03-31T12:14:47;14.85;;;4.07;;
69625;SDS011;56847;51.984;5.088;2023-03-31T12:17:36;13.13;;;3.43;;
69625;SDS011;56847;51.984;5.088;2023-03-31T12:20:14;15.38;;;4.32;;
69625;SDS011;56847;51.984;5.088;2023-03-31T12:22:51;13.10;;;4.30;;
69625;SDS011;56847;51.984;5.088;2023-03-31T12:25:51;11.00;;;3.30;;
69625;SDS011;56847;51.984;5.088;2023-03-31T12:28:43;8.95;;;3.03;;
69625;SDS011;56847;51.984;5.088;2023-03-31T12:31:16;12.03;;;3.30;;
69625;SDS011;56847;51.984;5.088;2023-03-31T12:33:50;11.35;;;2.88;;
69625;SDS011;56847;51.984;5.088;2023-03-31T12:39:29;15.05;;;3.60;;
69625;SDS011;56847;51.984;5.088;2023-03-31T12:45:01;18.93;;;4.10;;
69625;SDS011;56847;51.984;5.088;2023-03-31T12:47:48;14.77;;;3.97;;
69625;SDS011;56847;51.984;5.088;2023-03-31T12:53:07;17.33;;;3.97;;
69625;SDS011;56847;51.984;5.088;2023-03-31T12:55:49;24.02;;;4.53;;
69625;SDS011;56847;51.984;5.088;2023-03-31T13:05:59;20.63;;;4.40;;
69625;SDS011;56847;51.984;5.088;2023-03-31T13:16:30;15.13;;;4.05;;
69625;SDS011;56847;51.984;5.088;2023-03-31T13:19:00;18.13;;;3.70;;
69625;SDS011;56847;51.984;5.088;2023-03-31T13:21:27;22.95;;;6.53;;
69625;SDS011;56847;51.984;5.088;2023-03-31T13:23:58;9.23;;;3.50;;
69625;SDS011;56847;51.984;5.088;2023-03-31T13:34:31;17.02;;;3.30;;
69625;SDS011;56847;51.984;5.088;2023-03-31T13:37:08;19.33;;;3.83;;
69625;SDS011;56847;51.984;5.088;2023-03-31T13:45:13;12.40;;;3.75;;
69625;SDS011;56847;51.984;5.088;2023-03-31T13:56:25;10.50;;;3.78;;
69625;SDS011;56847;51.984;5.088;2023-03-31T14:02:30;11.38;;;3.35;;
69625;SDS011;56847;51.984;5.088;2023-03-31T14:04:59;8.80;;;3.23;;
69625;SDS011;56847;51.984;5.088;2023-03-31T14:07:46;14.93;;;3.25;;
69625;SDS011;56847;51.984;5.088;2023-03-31T14:10:29;8.70;;;2.97;;
69625;SDS011;56847;51.984;5.088;2023-03-31T14:13:08;10.93;;;3.28;;
69625;SDS011;56847;51.984;5.088;2023-03-31T14:15:36;12.07;;;4.07;;
69625;SDS011;56847;51.984;5.088;2023-03-31T14:18:07;8.10;;;3.40;;
69625;SDS011;56847;51.984;5.088;2023-03-31T14:26:09;7.07;;;2.50;;
69625;SDS011;56847;51.984;5.088;2023-03-31T14:36:31;7.00;;;2.30;;
69625;SDS011;56847;51.984;5.088;2023-03-31T14:39:08;6.55;;;2.70;;
69625;SDS011;56847;51.984;5.088;2023-03-31T14:41:37;6.88;;;2.17;;
69625;SDS011;56847;51.984;5.088;2023-03-31T14:44:05;7.53;;;2.53;;
69625;SDS011;56847;51.984;5.088;2023-03-31T14:46:36;18.42;;;3.85;;
69625;SDS011;56847;51.984;5.088;2023-03-31T14:49:21;9.48;;;3.40;;
69625;SDS011;56847;51.984;5.088;2023-03-31T14:51:59;7.07;;;3.80;;
69625;SDS011;56847;51.984;5.088;2023-03-31T14:54:37;15.00;;;4.38;;
69625;SDS011;56847;51.984;5.088;2023-03-31T14:57:04;9.13;;;3.40;;
69625;SDS011;56847;51.984;5.088;2023-03-31T14:59:31;8.90;;;3.15;;
69625;SDS011;56847;51.984;5.088;2023-03-31T15:02:02;7.20;;;2.92;;
69625;SDS011;56847;51.984;5.088;2023-03-31T15:04:33;10.45;;;2.58;;
69625;SDS011;56847;51.984;5.088;2023-03-31T15:07:11;9.10;;;2.80;;
69625;SDS011;56847;51.984;5.088;2023-03-31T15:09:39;6.30;;;2.90;;
69625;SDS011;56847;51.984;5.088;2023-03-31T15:12:11;8.32;;;3.00;;
69625;SDS011;56847;51.984;5.088;2023-03-31T15:15:13;5.22;;;2.33;;
69625;SDS011;56847;51.984;5.088;2023-03-31T15:17:37;7.60;;;2.63;;
69625;SDS011;56847;51.984;5.088;2023-03-31T15:23:04;8.60;;;2.20;;
69625;SDS011;56847;51.984;5.088;2023-03-31T15:25:51;5.82;;;2.63;;
69625;SDS011;56847;51.984;5.088;2023-03-31T15:28:24;9.98;;;3.15;;
69625;SDS011;56847;51.984;5.088;2023-03-31T15:30:59;5.97;;;3.40;;
69625;SDS011;56847;51.984;5.088;2023-03-31T15:33:36;6.68;;;3.10;;
69625;SDS011;56847;51.984;5.088;2023-03-31T15:36:07;4.33;;;2.70;;
69625;SDS011;56847;51.984;5.088;2023-03-31T15:38:37;7.43;;;3.03;;
69625;SDS011;56847;51.984;5.088;2023-03-31T15:41:10;6.05;;;2.90;;
69625;SDS011;56847;51.984;5.088;2023-03-31T15:43:46;7.32;;;2.63;;
69625;SDS011;56847;51.984;5.088;2023-03-31T15:47:05;7.15;;;3.38;;
69625;SDS011;56847;51.984;5.088;2023-03-31T15:49:05;5.63;;;2.83;;
69625;SDS011;56847;51.984;5.088;2023-03-31T15:51:48;5.75;;;2.65;;
69625;SDS011;56847;51.984;5.088;2023-03-31T15:54:30;4.78;;;2.75;;
69625;SDS011;56847;51.984;5.088;2023-03-31T15:57:03;3.17;;;2.88;;
69625;SDS011;56847;51.984;5.088;2023-03-31T15:59:43;4.85;;;2.65;;
69625;SDS011;56847;51.984;5.088;2023-03-31T16:02:23;7.73;;;2.37;;
69625;SDS011;56847;51.984;5.088;2023-03-31T16:04:56;4.63;;;2.72;;
69625;SDS011;56847;51.984;5.088;2023-03-31T16:07:25;8.98;;;3.05;;
69625;SDS011;56847;51.984;5.088;2023-03-31T16:10:05;6.45;;;2.88;;
69625;SDS011;56847;51.984;5.088;2023-03-31T16:12:56;8.57;;;3.60;;
69625;SDS011;56847;51.984;5.088;2023-03-31T16:15:31;8.87;;;2.97;;
69625;SDS011;56847;51.984;5.088;2023-03-31T16:18:06;8.52;;;2.90;;
69625;SDS011;56847;51.984;5.088;2023-03-31T16:20:41;7.38;;;3.10;;
69625;SDS011;56847;51.984;5.088;2023-03-31T16:23:16;6.40;;;3.47;;
69625;SDS011;56847;51.984;5.088;2023-03-31T16:25:46;10.52;;;3.25;;
69625;SDS011;56847;51.984;5.088;2023-03-31T16:28:14;6.67;;;3.37;;
69625;SDS011;56847;51.984;5.088;2023-03-31T16:30:45;4.80;;;3.13;;
69625;SDS011;56847;51.984;5.088;2023-03-31T16:33:19;4.97;;;3.20;;
69625;SDS011;56847;51.984;5.088;2023-03-31T16:35:49;4.10;;;3.20;;
69625;SDS011;56847;51.984;5.088;2023-03-31T16:38:22;3.80;;;3.00;;
69625;SDS011;56847;51.984;5.088;2023-03-31T16:40:54;3.43;;;2.53;;
69625;SDS011;56847;51.984;5.088;2023-03-31T16:43:26;8.30;;;3.55;;
69625;SDS011;56847;51.984;5.088;2023-03-31T16:45:56;6.40;;;3.33;;
69625;SDS011;56847;51.984;5.088;2023-03-31T16:48:26;3.97;;;2.97;;
69625;SDS011;56847;51.984;5.088;2023-03-31T16:50:56;4.20;;;3.35;;
69625;SDS011;56847;51.984;5.088;2023-03-31T16:53:24;4.20;;;3.20;;
69625;SDS011;56847;51.984;5.088;2023-03-31T16:55:56;5.63;;;2.67;;
69625;SDS011;56847;51.984;5.088;2023-03-31T16:58:23;7.93;;;3.83;;
69625;SDS011;56847;51.984;5.088;2023-03-31T17:00:51;4.85;;;3.63;;
69625;SDS011;56847;51.984;5.088;2023-03-31T17:03:19;5.68;;;3.15;;
69625;SDS011;56847;51.984;5.088;2023-03-31T17:05:47;15.47;;;4.17;;
69625;SDS011;56847;51.984;5.088;2023-03-31T17:08:22;4.53;;;3.22;;
69625;SDS011;56847;51.984;5.088;2023-03-31T17:10:51;6.18;;;3.28;;
69625;SDS011;56847;51.984;5.088;2023-03-31T17:13:20;5.07;;;3.20;;
69625;SDS011;56847;51.984;5.088;2023-03-31T17:15:47;5.03;;;3.67;;
69625;SDS011;56847;51.984;5.088;2023-03-31T17:18:21;5.13;;;3.50;;
69625;SDS011;56847;51.984;5.088;2023-03-31T17:20:49;5.75;;;2.88;;
69625;SDS011;56847;51.984;5.088;2023-03-31T17:23:20;5.88;;;3.15;;
69625;SDS011;56847;51.984;5.088;2023-03-31T17:25:48;4.40;;;3.03;;
69625;SDS011;56847;51.984;5.088;2023-03-31T17:28:17;5.75;;;3.30;;
69625;SDS011;56847;51.984;5.088;2023-03-31T17:30:48;5.93;;;3.30;;
69625;SDS011;56847;51.984;5.088;2023-03-31T17:33:16;4.55;;;3.22;;
69625;SDS011;56847;51.984;5.088;2023-03-31T17:35:44;4.15;;;3.13;;
69625;SDS011;56847;51.984;5.088;2023-03-31T17:38:13;6.75;;;3.67;;
69625;SDS011;56847;51.984;5.088;2023-03-31T17:40:41;8.63;;;3.50;;
69625;SDS011;56847;51.984;5.088;2023-03-31T17:43:15;4.00;;;3.43;;
69625;SDS011;56847;51.984;5.088;2023-03-31T17:45:43;7.00;;;3.67;;
69625;SDS011;56847;51.984;5.088;2023-03-31T17:48:16;8.32;;;3.85;;
69625;SDS011;56847;51.984;5.088;2023-03-31T17:50:43;4.03;;;3.40;;
69625;SDS011;56847;51.984;5.088;2023-03-31T17:53:10;10.38;;;3.75;;
69625;SDS011;56847;51.984;5.088;2023-03-31T17:55:39;11.40;;;4.40;;
69625;SDS011;56847;51.984;5.088;2023-03-31T17:58:09;7.15;;;3.60;;